sensor_id;sensor_type;location;lat;lon;timestamp;pressure;altitude;pressure_sealevel;temperature;humidity
49315;BME280;36672;50.710;12.498;2023-02-19T00:00:58;98543.78;;;8.07;78.78
49315;BME280;36672;50.710;12.498;2023-02-19T00:03:24;98549.66;;;8.10;78.70
49315;BME280;36672;50.710;12.498;2023-02-19T00:05:50;98547.97;;;8.09;79.08
49315;BME280;36672;50.710;12.498;2023-02-19T00:08:15;98536.38;;;8.09;78.46
49315;BME280;36672;50.710;12.498;2023-02-19T00:10:40;98551.81;;;8.15;79.07
49315;BME280;36672;50.710;12.498;2023-02-19T00:13:05;98555.16;;;8.17;78.41
49315;BME280;36672;50.710;12.498;2023-02-19T00:15:31;98548.91;;;8.16;78.35
49315;BME280;36672;50.710;12.498;2023-02-19T00:17:56;98546.03;;;8.18;78.88
49315;BME280;36672;50.710;12.498;2023-02-19T00:20:22;98540.66;;;8.18;79.48
49315;BME280;36672;50.710;12.498;2023-02-19T00:22:47;98543.19;;;8.20;79.80
49315;BME280;36672;50.710;12.498;2023-02-19T00:25:12;98535.84;;;8.13;80.35
49315;BME280;36672;50.710;12.498;2023-02-19T00:27:37;98533.31;;;8.12;80.67
49315;BME280;36672;50.710;12.498;2023-02-19T00:30:03;98535.19;;;8.11;81.12
49315;BME280;36672;50.710;12.498;2023-02-19T00:32:28;98521.06;;;8.09;81.31
49315;BME280;36672;50.710;12.498;2023-02-19T00:34:53;98518.75;;;8.06;81.73
49315;BME280;36672;50.710;12.498;2023-02-19T00:37:18;98518.56;;;8.08;82.37
49315;BME280;36672;50.710;12.498;2023-02-19T00:39:43;98516.88;;;8.07;82.88
49315;BME280;36672;50.710;12.498;2023-02-19T00:42:09;98507.31;;;8.04;82.98
49315;BME280;36672;50.710;12.498;2023-02-19T00:44:34;98500.13;;;8.05;83.51
49315;BME280;36672;50.710;12.498;2023-02-19T00:46:59;98501.13;;;8.04;83.45
49315;BME280;36672;50.710;12.498;2023-02-19T00:49:24;98504.00;;;8.02;84.17
49315;BME280;36672;50.710;12.498;2023-02-19T00:51:50;98498.81;;;8.00;83.86
49315;BME280;36672;50.710;12.498;2023-02-19T00:54:16;98486.38;;;7.99;84.13
49315;BME280;36672;50.710;12.498;2023-02-19T00:56:41;98478.84;;;7.95;83.99
49315;BME280;36672;50.710;12.498;2023-02-19T00:59:06;98478.38;;;7.91;84.46
49315;BME280;36672;50.710;12.498;2023-02-19T01:01:31;98468.75;;;7.97;84.17
49315;BME280;36672;50.710;12.498;2023-02-19T01:03:57;98475.16;;;7.96;83.98
49315;BME280;36672;50.710;12.498;2023-02-19T01:06:22;98468.28;;;7.93;83.91
49315;BME280;36672;50.710;12.498;2023-02-19T01:08:48;98461.69;;;7.96;84.23
49315;BME280;36672;50.710;12.498;2023-02-19T01:11:14;98455.28;;;7.97;84.04
49315;BME280;36672;50.710;12.498;2023-02-19T01:13:39;98454.44;;;7.96;83.85
49315;BME280;36672;50.710;12.498;2023-02-19T01:16:10;98461.69;;;7.96;83.93
49315;BME280;36672;50.710;12.498;2023-02-19T01:18:36;98451.28;;;7.93;84.34
49315;BME280;36672;50.710;12.498;2023-02-19T01:21:08;98445.53;;;7.96;83.97
49315;BME280;36672;50.710;12.498;2023-02-19T01:23:34;98441.84;;;7.97;83.89
49315;BME280;36672;50.710;12.498;2023-02-19T01:26:02;98429.75;;;7.93;85.11
49315;BME280;36672;50.710;12.498;2023-02-19T01:28:27;98418.19;;;7.92;84.72
49315;BME280;36672;50.710;12.498;2023-02-19T01:30:53;98406.41;;;7.93;85.10
49315;BME280;36672;50.710;12.498;2023-02-19T01:33:18;98413.19;;;7.89;85.73
49315;BME280;36672;50.710;12.498;2023-02-19T01:35:44;98390.72;;;7.82;86.12
49315;BME280;36672;50.710;12.498;2023-02-19T01:38:09;98382.00;;;7.80;85.96
49315;BME280;36672;50.710;12.498;2023-02-19T01:40:34;98378.66;;;7.78;86.70
49315;BME280;36672;50.710;12.498;2023-02-19T01:42:59;98378.00;;;7.76;86.36
49315;BME280;36672;50.710;12.498;2023-02-19T01:45:27;98374.31;;;7.77;86.05
49315;BME280;36672;50.710;12.498;2023-02-19T01:48:36;98380.31;;;7.79;86.26
49315;BME280;36672;50.710;12.498;2023-02-19T01:50:49;98383.19;;;7.77;86.40
49315;BME280;36672;50.710;12.498;2023-02-19T01:53:17;98379.22;;;7.73;86.67
49315;BME280;36672;50.710;12.498;2023-02-19T01:55:43;98384.78;;;7.72;86.57
49315;BME280;36672;50.710;12.498;2023-02-19T01:58:10;98379.88;;;7.75;86.92
49315;BME280;36672;50.710;12.498;2023-02-19T02:00:36;98354.81;;;7.75;86.31
49315;BME280;36672;50.710;12.498;2023-02-19T02:03:01;98359.84;;;7.78;86.21
49315;BME280;36672;50.710;12.498;2023-02-19T02:05:36;98351.78;;;7.78;86.46
49315;BME280;36672;50.710;12.498;2023-02-19T02:08:04;98352.41;;;7.80;86.36
49315;BME280;36672;50.710;12.498;2023-02-19T02:10:48;98337.13;;;7.80;86.07
49315;BME280;36672;50.710;12.498;2023-02-19T02:13:14;98327.00;;;7.82;85.29
49315;BME280;36672;50.710;12.498;2023-02-19T02:15:46;98321.16;;;7.79;85.26
49315;BME280;36672;50.710;12.498;2023-02-19T02:23:53;98298.25;;;7.83;84.14
49315;BME280;36672;50.710;12.498;2023-02-19T02:26:24;98296.59;;;7.82;83.90
49315;BME280;36672;50.710;12.498;2023-02-19T02:31:48;98304.00;;;7.80;84.07
49315;BME280;36672;50.710;12.498;2023-02-19T02:34:21;98306.69;;;7.80;84.04
49315;BME280;36672;50.710;12.498;2023-02-19T02:36:49;98307.53;;;7.80;83.91
49315;BME280;36672;50.710;12.498;2023-02-19T02:39:17;98301.97;;;7.82;83.79
49315;BME280;36672;50.710;12.498;2023-02-19T02:41:44;98305.94;;;7.86;83.61
49315;BME280;36672;50.710;12.498;2023-02-19T02:44:12;98303.06;;;7.88;83.68
49315;BME280;36672;50.710;12.498;2023-02-19T02:46:39;98308.28;;;7.89;83.54
49315;BME280;36672;50.710;12.498;2023-02-19T02:49:08;98306.00;;;7.93;83.63
49315;BME280;36672;50.710;12.498;2023-02-19T02:51:36;98308.53;;;7.94;83.24
49315;BME280;36672;50.710;12.498;2023-02-19T02:56:46;98309.16;;;7.96;83.44
49315;BME280;36672;50.710;12.498;2023-02-19T02:59:13;98292.94;;;7.90;83.27
49315;BME280;36672;50.710;12.498;2023-02-19T03:01:41;98287.09;;;7.86;83.29
49315;BME280;36672;50.710;12.498;2023-02-19T03:07:30;98277.28;;;7.93;83.31
49315;BME280;36672;50.710;12.498;2023-02-19T03:09:57;98289.50;;;7.96;82.66
49315;BME280;36672;50.710;12.498;2023-02-19T03:12:24;98282.06;;;7.98;82.43
49315;BME280;36672;50.710;12.498;2023-02-19T03:15:10;98272.91;;;7.92;82.12
49315;BME280;36672;50.710;12.498;2023-02-19T03:17:57;98270.47;;;7.97;82.10
49315;BME280;36672;50.710;12.498;2023-02-19T03:20:43;98264.75;;;8.00;81.86
49315;BME280;36672;50.710;12.498;2023-02-19T03:23:11;98268.06;;;8.03;81.82
49315;BME280;36672;50.710;12.498;2023-02-19T03:25:37;98261.25;;;8.07;81.28
49315;BME280;36672;50.710;12.498;2023-02-19T03:28:23;98260.63;;;8.05;81.17
49315;BME280;36672;50.710;12.498;2023-02-19T03:31:10;98258.41;;;8.08;80.83
49315;BME280;36672;50.710;12.498;2023-02-19T03:33:37;98247.25;;;8.11;80.77
49315;BME280;36672;50.710;12.498;2023-02-19T03:36:04;98247.44;;;8.10;80.13
49315;BME280;36672;50.710;12.498;2023-02-19T03:38:35;98241.66;;;8.13;80.33
49315;BME280;36672;50.710;12.498;2023-02-19T03:41:06;98248.38;;;8.17;80.14
49315;BME280;36672;50.710;12.498;2023-02-19T03:43:36;98249.19;;;8.18;80.33
49315;BME280;36672;50.710;12.498;2023-02-19T03:48:38;98259.19;;;8.24;79.66
49315;BME280;36672;50.710;12.498;2023-02-19T03:51:49;98261.69;;;8.25;79.48
49315;BME280;36672;50.710;12.498;2023-02-19T03:54:14;98261.31;;;8.28;79.52
49315;BME280;36672;50.710;12.498;2023-02-19T03:56:49;98266.75;;;8.35;79.57
49315;BME280;36672;50.710;12.498;2023-02-19T03:59:21;98259.91;;;8.32;79.67
49315;BME280;36672;50.710;12.498;2023-02-19T04:01:53;98247.25;;;8.33;79.12
49315;BME280;36672;50.710;12.498;2023-02-19T04:04:21;98246.91;;;8.36;79.54
49315;BME280;36672;50.710;12.498;2023-02-19T04:06:49;98246.50;;;8.39;79.53
49315;BME280;36672;50.710;12.498;2023-02-19T04:09:18;98243.22;;;8.44;79.23
49315;BME280;36672;50.710;12.498;2023-02-19T04:11:44;98245.72;;;8.45;79.26
49315;BME280;36672;50.710;12.498;2023-02-19T04:14:15;98234.13;;;8.45;79.37
49315;BME280;36672;50.710;12.498;2023-02-19T04:16:43;98241.84;;;8.48;79.20
49315;BME280;36672;50.710;12.498;2023-02-19T04:19:11;98234.78;;;8.47;79.08
49315;BME280;36672;50.710;12.498;2023-02-19T04:21:38;98248.06;;;8.48;79.60
49315;BME280;36672;50.710;12.498;2023-02-19T04:24:15;98243.03;;;8.45;79.67
49315;BME280;36672;50.710;12.498;2023-02-19T04:26:43;98236.94;;;8.37;80.89
49315;BME280;36672;50.710;12.498;2023-02-19T04:29:08;98235.66;;;8.32;80.74
49315;BME280;36672;50.710;12.498;2023-02-19T04:31:34;98237.09;;;8.28;81.91
49315;BME280;36672;50.710;12.498;2023-02-19T04:34:00;98237.00;;;8.22;81.45
49315;BME280;36672;50.710;12.498;2023-02-19T04:36:25;98233.75;;;8.26;81.75
49315;BME280;36672;50.710;12.498;2023-02-19T04:38:50;98243.66;;;8.26;81.18
49315;BME280;36672;50.710;12.498;2023-02-19T04:41:16;98232.28;;;8.24;81.45
49315;BME280;36672;50.710;12.498;2023-02-19T04:43:41;98242.59;;;8.20;80.77
49315;BME280;36672;50.710;12.498;2023-02-19T04:46:06;98250.66;;;8.20;80.82
49315;BME280;36672;50.710;12.498;2023-02-19T04:48:31;98240.53;;;8.22;80.57
49315;BME280;36672;50.710;12.498;2023-02-19T04:50:57;98239.13;;;8.26;80.92
49315;BME280;36672;50.710;12.498;2023-02-19T04:53:22;98249.69;;;8.28;80.69
49315;BME280;36672;50.710;12.498;2023-02-19T04:55:47;98250.97;;;8.32;80.24
49315;BME280;36672;50.710;12.498;2023-02-19T04:58:13;98243.34;;;8.36;80.80
49315;BME280;36672;50.710;12.498;2023-02-19T05:00:38;98244.38;;;8.35;79.53
49315;BME280;36672;50.710;12.498;2023-02-19T05:03:03;98253.91;;;8.37;79.59
49315;BME280;36672;50.710;12.498;2023-02-19T05:05:28;98244.00;;;8.38;79.43
49315;BME280;36672;50.710;12.498;2023-02-19T05:07:54;98247.50;;;8.38;79.32
49315;BME280;36672;50.710;12.498;2023-02-19T05:10:19;98247.16;;;8.41;79.13
49315;BME280;36672;50.710;12.498;2023-02-19T05:12:44;98251.97;;;8.46;79.20
49315;BME280;36672;50.710;12.498;2023-02-19T05:15:09;98245.56;;;8.47;79.29
49315;BME280;36672;50.710;12.498;2023-02-19T05:17:34;98252.41;;;8.49;79.45
49315;BME280;36672;50.710;12.498;2023-02-19T05:20:00;98246.00;;;8.51;79.54
49315;BME280;36672;50.710;12.498;2023-02-19T05:22:26;98247.88;;;8.50;79.21
49315;BME280;36672;50.710;12.498;2023-02-19T05:24:52;98244.91;;;8.45;78.58
49315;BME280;36672;50.710;12.498;2023-02-19T05:27:17;98246.94;;;8.43;78.17
49315;BME280;36672;50.710;12.498;2023-02-19T05:29:42;98249.28;;;8.46;78.74
49315;BME280;36672;50.710;12.498;2023-02-19T05:32:07;98252.81;;;8.46;78.28
49315;BME280;36672;50.710;12.498;2023-02-19T05:34:33;98247.88;;;8.50;78.84
49315;BME280;36672;50.710;12.498;2023-02-19T05:36:58;98248.69;;;8.51;78.48
49315;BME280;36672;50.710;12.498;2023-02-19T05:39:23;98258.44;;;8.52;78.38
49315;BME280;36672;50.710;12.498;2023-02-19T05:41:48;98243.53;;;8.49;77.42
49315;BME280;36672;50.710;12.498;2023-02-19T05:44:13;98252.81;;;8.46;77.93
49315;BME280;36672;50.710;12.498;2023-02-19T05:46:39;98258.53;;;8.43;77.64
49315;BME280;36672;50.710;12.498;2023-02-19T05:49:04;98258.81;;;8.48;78.48
49315;BME280;36672;50.710;12.498;2023-02-19T05:51:29;98258.00;;;8.48;78.65
49315;BME280;36672;50.710;12.498;2023-02-19T05:53:55;98263.59;;;8.46;78.65
49315;BME280;36672;50.710;12.498;2023-02-19T05:58:53;98273.88;;;8.43;79.18
49315;BME280;36672;50.710;12.498;2023-02-19T06:01:19;98263.31;;;8.41;79.64
49315;BME280;36672;50.710;12.498;2023-02-19T06:03:44;98270.72;;;8.39;79.89
49315;BME280;36672;50.710;12.498;2023-02-19T06:06:12;98287.44;;;8.35;80.39
49315;BME280;36672;50.710;12.498;2023-02-19T06:08:38;98290.34;;;8.33;80.93
49315;BME280;36672;50.710;12.498;2023-02-19T06:11:03;98293.41;;;8.30;82.17
49315;BME280;36672;50.710;12.498;2023-02-19T06:13:28;98296.66;;;8.25;82.03
49315;BME280;36672;50.710;12.498;2023-02-19T06:15:54;98310.25;;;8.17;82.82
49315;BME280;36672;50.710;12.498;2023-02-19T06:18:19;98315.34;;;8.12;83.46
49315;BME280;36672;50.710;12.498;2023-02-19T06:20:44;98324.81;;;8.08;84.43
49315;BME280;36672;50.710;12.498;2023-02-19T06:23:09;98325.78;;;8.00;85.08
49315;BME280;36672;50.710;12.498;2023-02-19T06:25:34;98339.69;;;7.89;86.02
49315;BME280;36672;50.710;12.498;2023-02-19T06:28:00;98340.63;;;7.81;86.72
49315;BME280;36672;50.710;12.498;2023-02-19T06:30:25;98352.13;;;7.75;87.18
49315;BME280;36672;50.710;12.498;2023-02-19T06:32:51;98358.06;;;7.70;87.85
49315;BME280;36672;50.710;12.498;2023-02-19T06:35:17;98369.19;;;7.67;87.68
49315;BME280;36672;50.710;12.498;2023-02-19T06:37:42;98360.66;;;7.63;88.05
49315;BME280;36672;50.710;12.498;2023-02-19T06:40:10;98372.00;;;7.59;88.99
49315;BME280;36672;50.710;12.498;2023-02-19T06:42:35;98370.38;;;7.49;89.74
49315;BME280;36672;50.710;12.498;2023-02-19T06:45:03;98373.44;;;7.46;89.80
49315;BME280;36672;50.710;12.498;2023-02-19T06:47:32;98373.16;;;7.41;90.34
49315;BME280;36672;50.710;12.498;2023-02-19T06:49:57;98376.59;;;7.35;90.42
49315;BME280;36672;50.710;12.498;2023-02-19T06:52:23;98369.72;;;7.32;90.53
49315;BME280;36672;50.710;12.498;2023-02-19T06:54:48;98374.16;;;7.25;91.09
49315;BME280;36672;50.710;12.498;2023-02-19T06:57:13;98373.28;;;7.10;90.67
49315;BME280;36672;50.710;12.498;2023-02-19T06:59:38;98371.78;;;7.07;90.75
49315;BME280;36672;50.710;12.498;2023-02-19T07:02:04;98374.47;;;7.07;90.77
49315;BME280;36672;50.710;12.498;2023-02-19T07:04:29;98375.38;;;6.99;90.74
49315;BME280;36672;50.710;12.498;2023-02-19T07:06:54;98380.91;;;6.98;90.83
49315;BME280;36672;50.710;12.498;2023-02-19T07:09:19;98393.81;;;7.02;91.03
49315;BME280;36672;50.710;12.498;2023-02-19T07:11:45;98392.81;;;7.04;91.08
49315;BME280;36672;50.710;12.498;2023-02-19T07:14:12;98390.50;;;7.00;91.05
49315;BME280;36672;50.710;12.498;2023-02-19T07:16:38;98376.69;;;7.04;91.03
49315;BME280;36672;50.710;12.498;2023-02-19T07:19:03;98392.81;;;7.04;90.79
49315;BME280;36672;50.710;12.498;2023-02-19T07:21:28;98396.16;;;7.06;90.55
49315;BME280;36672;50.710;12.498;2023-02-19T07:23:54;98405.72;;;7.08;90.43
49315;BME280;36672;50.710;12.498;2023-02-19T07:26:20;98408.22;;;7.10;90.18
49315;BME280;36672;50.710;12.498;2023-02-19T07:28:46;98414.88;;;7.14;90.24
49315;BME280;36672;50.710;12.498;2023-02-19T07:31:12;98429.47;;;7.20;90.60
49315;BME280;36672;50.710;12.498;2023-02-19T07:33:38;98417.88;;;7.19;90.20
49315;BME280;36672;50.710;12.498;2023-02-19T07:36:05;98409.63;;;7.21;90.29
49315;BME280;36672;50.710;12.498;2023-02-19T07:38:30;98407.69;;;7.14;89.79
49315;BME280;36672;50.710;12.498;2023-02-19T07:41:00;98412.38;;;7.12;89.68
49315;BME280;36672;50.710;12.498;2023-02-19T07:43:28;98421.63;;;7.10;89.96
49315;BME280;36672;50.710;12.498;2023-02-19T07:45:53;98424.97;;;7.12;89.94
49315;BME280;36672;50.710;12.498;2023-02-19T07:48:19;98426.81;;;7.11;90.14
49315;BME280;36672;50.710;12.498;2023-02-19T07:50:51;98432.00;;;7.13;90.23
49315;BME280;36672;50.710;12.498;2023-02-19T07:53:16;98434.16;;;7.17;90.62
49315;BME280;36672;50.710;12.498;2023-02-19T07:55:41;98431.97;;;7.21;90.36
49315;BME280;36672;50.710;12.498;2023-02-19T07:58:07;98446.41;;;7.20;90.28
49315;BME280;36672;50.710;12.498;2023-02-19T08:00:32;98435.38;;;7.15;90.18
49315;BME280;36672;50.710;12.498;2023-02-19T08:02:57;98440.94;;;7.13;89.74
49315;BME280;36672;50.710;12.498;2023-02-19T08:05:32;98452.31;;;7.15;90.05
49315;BME280;36672;50.710;12.498;2023-02-19T08:07:58;98456.19;;;7.13;90.42
49315;BME280;36672;50.710;12.498;2023-02-19T08:10:23;98452.88;;;7.11;90.24
49315;BME280;36672;50.710;12.498;2023-02-19T08:13:10;98448.22;;;7.05;90.51
49315;BME280;36672;50.710;12.498;2023-02-19T08:15:47;98455.59;;;7.02;90.76
49315;BME280;36672;50.710;12.498;2023-02-19T08:18:13;98453.22;;;7.08;91.01
49315;BME280;36672;50.710;12.498;2023-02-19T08:20:39;98466.78;;;7.14;91.10
49315;BME280;36672;50.710;12.498;2023-02-19T08:23:04;98464.22;;;7.21;90.86
49315;BME280;36672;50.710;12.498;2023-02-19T08:25:30;98472.38;;;7.28;91.06
49315;BME280;36672;50.710;12.498;2023-02-19T08:27:55;98476.03;;;7.35;91.00
49315;BME280;36672;50.710;12.498;2023-02-19T08:30:21;98482.22;;;7.35;90.33
49315;BME280;36672;50.710;12.498;2023-02-19T08:32:46;98483.84;;;7.45;90.73
49315;BME280;36672;50.710;12.498;2023-02-19T08:35:12;98493.22;;;7.49;90.63
49315;BME280;36672;50.710;12.498;2023-02-19T08:37:37;98502.06;;;7.58;90.60
49315;BME280;36672;50.710;12.498;2023-02-19T08:40:02;98497.50;;;7.58;90.58
49315;BME280;36672;50.710;12.498;2023-02-19T08:42:28;98502.53;;;7.61;90.21
49315;BME280;36672;50.710;12.498;2023-02-19T08:44:53;98497.16;;;7.61;89.93
49315;BME280;36672;50.710;12.498;2023-02-19T08:47:18;98509.03;;;7.67;90.01
49315;BME280;36672;50.710;12.498;2023-02-19T08:49:44;98511.72;;;7.67;89.86
49315;BME280;36672;50.710;12.498;2023-02-19T08:52:09;98513.16;;;7.78;90.36
49315;BME280;36672;50.710;12.498;2023-02-19T08:54:34;98511.56;;;7.83;89.85
49315;BME280;36672;50.710;12.498;2023-02-19T08:56:59;98506.13;;;7.92;90.30
49315;BME280;36672;50.710;12.498;2023-02-19T08:59:24;98513.16;;;7.93;88.63
49315;BME280;36672;50.710;12.498;2023-02-19T09:01:52;98515.69;;;7.94;88.52
49315;BME280;36672;50.710;12.498;2023-02-19T09:04:17;98561.44;;;7.94;89.05
49315;BME280;36672;50.710;12.498;2023-02-19T09:06:42;98563.50;;;7.84;88.30
49315;BME280;36672;50.710;12.498;2023-02-19T09:09:07;98581.38;;;7.54;88.04
49315;BME280;36672;50.710;12.498;2023-02-19T09:11:33;98586.88;;;7.37;88.73
49315;BME280;36672;50.710;12.498;2023-02-19T09:13:58;98588.13;;;7.26;88.88
49315;BME280;36672;50.710;12.498;2023-02-19T09:16:23;98596.47;;;7.08;89.03
49315;BME280;36672;50.710;12.498;2023-02-19T09:18:48;98609.28;;;6.90;88.31
49315;BME280;36672;50.710;12.498;2023-02-19T09:21:13;98610.16;;;6.74;88.95
49315;BME280;36672;50.710;12.498;2023-02-19T09:23:39;98613.59;;;6.59;88.70
49315;BME280;36672;50.710;12.498;2023-02-19T09:26:04;98617.31;;;6.50;88.72
49315;BME280;36672;50.710;12.498;2023-02-19T09:28:30;98623.69;;;6.41;88.78
49315;BME280;36672;50.710;12.498;2023-02-19T09:30:56;98628.53;;;6.37;89.43
49315;BME280;36672;50.710;12.498;2023-02-19T09:33:21;98645.50;;;6.29;89.01
49315;BME280;36672;50.710;12.498;2023-02-19T09:35:46;98645.84;;;6.26;89.19
49315;BME280;36672;50.710;12.498;2023-02-19T09:38:12;98654.06;;;6.16;89.30
49315;BME280;36672;50.710;12.498;2023-02-19T09:40:37;98662.59;;;6.12;89.35
49315;BME280;36672;50.710;12.498;2023-02-19T09:43:11;98663.28;;;6.06;89.31
49315;BME280;36672;50.710;12.498;2023-02-19T09:45:39;98665.47;;;6.02;89.59
49315;BME280;36672;50.710;12.498;2023-02-19T09:48:04;98669.94;;;5.85;88.37
49315;BME280;36672;50.710;12.498;2023-02-19T09:50:35;98684.00;;;5.70;88.70
49315;BME280;36672;50.710;12.498;2023-02-19T09:53:03;98694.34;;;5.57;88.51
49315;BME280;36672;50.710;12.498;2023-02-19T09:55:38;98706.69;;;5.33;88.08
49315;BME280;36672;50.710;12.498;2023-02-19T09:58:26;98722.00;;;5.23;89.27
49315;BME280;36672;50.710;12.498;2023-02-19T10:00:54;98730.75;;;5.25;89.69
49315;BME280;36672;50.710;12.498;2023-02-19T10:03:22;98734.31;;;5.34;89.87
49315;BME280;36672;50.710;12.498;2023-02-19T10:05:49;98745.53;;;5.37;89.92
49315;BME280;36672;50.710;12.498;2023-02-19T10:08:18;98748.56;;;5.43;90.03
49315;BME280;36672;50.710;12.498;2023-02-19T10:10:43;98746.06;;;5.49;90.28
49315;BME280;36672;50.710;12.498;2023-02-19T10:13:22;98741.72;;;5.48;89.90
49315;BME280;36672;50.710;12.498;2023-02-19T10:15:49;98749.91;;;5.47;89.73
49315;BME280;36672;50.710;12.498;2023-02-19T10:18:16;98758.28;;;5.44;89.38
49315;BME280;36672;50.710;12.498;2023-02-19T10:20:42;98761.28;;;5.41;89.80
49315;BME280;36672;50.710;12.498;2023-02-19T10:23:09;98772.91;;;5.23;88.26
49315;BME280;36672;50.710;12.498;2023-02-19T10:25:35;98784.22;;;5.09;87.94
49315;BME280;36672;50.710;12.498;2023-02-19T10:28:01;98781.53;;;5.09;88.85
49315;BME280;36672;50.710;12.498;2023-02-19T10:30:33;98802.66;;;5.12;88.79
49315;BME280;36672;50.710;12.498;2023-02-19T10:35:24;98799.72;;;4.97;87.57
49315;BME280;36672;50.710;12.498;2023-02-19T10:37:49;98801.38;;;4.98;87.90
49315;BME280;36672;50.710;12.498;2023-02-19T10:40:16;98816.81;;;5.04;88.68
49315;BME280;36672;50.710;12.498;2023-02-19T10:42:44;98818.50;;;5.05;88.87
49315;BME280;36672;50.710;12.498;2023-02-19T10:45:11;98819.66;;;5.02;88.60
49315;BME280;36672;50.710;12.498;2023-02-19T10:47:41;98825.72;;;5.04;88.97
49315;BME280;36672;50.710;12.498;2023-02-19T10:50:22;98838.94;;;5.06;88.66
49315;BME280;36672;50.710;12.498;2023-02-19T10:52:52;98842.94;;;5.02;88.64
49315;BME280;36672;50.710;12.498;2023-02-19T10:57:44;98846.97;;;5.06;89.42
49315;BME280;36672;50.710;12.498;2023-02-19T11:02:39;98872.03;;;5.23;88.63
49315;BME280;36672;50.710;12.498;2023-02-19T11:07:33;98869.59;;;5.30;88.82
49315;BME280;36672;50.710;12.498;2023-02-19T11:09:58;98879.44;;;5.29;88.17
49315;BME280;36672;50.710;12.498;2023-02-19T11:12:31;98885.16;;;5.34;89.09
49315;BME280;36672;50.710;12.498;2023-02-19T11:14:59;98884.66;;;5.31;88.33
49315;BME280;36672;50.710;12.498;2023-02-19T11:17:27;98889.94;;;5.22;88.24
49315;BME280;36672;50.710;12.498;2023-02-19T11:19:56;98898.59;;;5.16;88.21
49315;BME280;36672;50.710;12.498;2023-02-19T11:22:32;98896.88;;;5.07;87.96
49315;BME280;36672;50.710;12.498;2023-02-19T11:25:02;98892.84;;;5.03;87.92
49315;BME280;36672;50.710;12.498;2023-02-19T11:27:29;98895.34;;;5.04;88.47
49315;BME280;36672;50.710;12.498;2023-02-19T11:30:25;98901.91;;;5.10;88.42
49315;BME280;36672;50.710;12.498;2023-02-19T11:32:40;98903.44;;;5.13;88.41
49315;BME280;36672;50.710;12.498;2023-02-19T11:38:04;98909.41;;;5.06;87.84
49315;BME280;36672;50.710;12.498;2023-02-19T11:43:14;98913.97;;;5.32;89.15
49315;BME280;36672;50.710;12.498;2023-02-19T11:45:43;98918.97;;;5.53;89.25
49315;BME280;36672;50.710;12.498;2023-02-19T11:48:24;98916.44;;;5.78;89.66
49315;BME280;36672;50.710;12.498;2023-02-19T11:53:33;98930.63;;;6.40;89.64
49315;BME280;36672;50.710;12.498;2023-02-19T12:09:31;98952.47;;;5.84;84.61
49315;BME280;36672;50.710;12.498;2023-02-19T12:12:22;98962.22;;;5.85;84.74
49315;BME280;36672;50.710;12.498;2023-02-19T12:20:58;98966.84;;;5.75;84.12
49315;BME280;36672;50.710;12.498;2023-02-19T12:33:17;98968.19;;;5.97;83.70
49315;BME280;36672;50.710;12.498;2023-02-19T12:35:49;98966.78;;;6.11;83.34
49315;BME280;36672;50.710;12.498;2023-02-19T12:38:21;98968.94;;;6.15;81.68
49315;BME280;36672;50.710;12.498;2023-02-19T12:40:58;98966.59;;;6.12;81.22
49315;BME280;36672;50.710;12.498;2023-02-19T12:43:27;98973.16;;;6.18;80.94
49315;BME280;36672;50.710;12.498;2023-02-19T12:46:14;98975.03;;;6.26;80.55
49315;BME280;36672;50.710;12.498;2023-02-19T12:48:52;98976.41;;;6.30;80.11
49315;BME280;36672;50.710;12.498;2023-02-19T12:51:24;98968.38;;;6.38;79.80
49315;BME280;36672;50.710;12.498;2023-02-19T12:54:00;98978.25;;;6.29;77.89
49315;BME280;36672;50.710;12.498;2023-02-19T12:56:28;98971.22;;;6.28;78.97
49315;BME280;36672;50.710;12.498;2023-02-19T12:58:59;98977.41;;;6.29;78.28
49315;BME280;36672;50.710;12.498;2023-02-19T13:01:29;98982.94;;;6.27;77.90
49315;BME280;36672;50.710;12.498;2023-02-19T13:06:41;98986.81;;;6.33;77.98
49315;BME280;36672;50.710;12.498;2023-02-19T13:11:41;98988.16;;;6.29;77.98
49315;BME280;36672;50.710;12.498;2023-02-19T13:16:36;98988.69;;;6.41;78.45
49315;BME280;36672;50.710;12.498;2023-02-19T13:19:04;98991.91;;;6.44;77.92
49315;BME280;36672;50.710;12.498;2023-02-19T13:21:30;98992.06;;;6.43;77.37
49315;BME280;36672;50.710;12.498;2023-02-19T13:32:02;99002.44;;;6.38;75.85
49315;BME280;36672;50.710;12.498;2023-02-19T13:37:15;99009.44;;;6.30;75.81
49315;BME280;36672;50.710;12.498;2023-02-19T13:42:22;99014.19;;;6.36;76.23
49315;BME280;36672;50.710;12.498;2023-02-19T13:44:48;99005.75;;;6.31;76.16
49315;BME280;36672;50.710;12.498;2023-02-19T13:50:04;99000.03;;;6.26;74.81
49315;BME280;36672;50.710;12.498;2023-02-19T13:52:32;99008.91;;;6.27;75.10
49315;BME280;36672;50.710;12.498;2023-02-19T13:57:42;99032.53;;;6.23;72.77
49315;BME280;36672;50.710;12.498;2023-02-19T14:00:47;99025.28;;;6.15;73.91
49315;BME280;36672;50.710;12.498;2023-02-19T14:03:24;99025.66;;;6.20;74.51
49315;BME280;36672;50.710;12.498;2023-02-19T14:05:55;99025.53;;;6.22;73.65
49315;BME280;36672;50.710;12.498;2023-02-19T14:11:16;99032.03;;;6.19;74.58
49315;BME280;36672;50.710;12.498;2023-02-19T14:16:27;99029.59;;;6.34;75.41
49315;BME280;36672;50.710;12.498;2023-02-19T14:18:53;99029.63;;;6.43;74.98
49315;BME280;36672;50.710;12.498;2023-02-19T14:21:24;99038.56;;;6.51;74.82
49315;BME280;36672;50.710;12.498;2023-02-19T14:23:54;99042.25;;;6.50;73.42
49315;BME280;36672;50.710;12.498;2023-02-19T14:26:21;99038.41;;;6.53;72.42
49315;BME280;36672;50.710;12.498;2023-02-19T14:28:46;99044.31;;;6.57;73.15
49315;BME280;36672;50.710;12.498;2023-02-19T14:33:45;99047.25;;;6.45;72.25
49315;BME280;36672;50.710;12.498;2023-02-19T14:41:23;99051.34;;;6.58;73.45
49315;BME280;36672;50.710;12.498;2023-02-19T14:43:52;99054.84;;;6.50;72.60
49315;BME280;36672;50.710;12.498;2023-02-19T14:48:50;99050.69;;;6.29;72.54
49315;BME280;36672;50.710;12.498;2023-02-19T14:51:24;99043.44;;;6.22;73.16
49315;BME280;36672;50.710;12.498;2023-02-19T14:53:53;99046.75;;;6.15;73.08